sensor_id;sensor_type;location;lat;lon;timestamp;temperature;humidity
11107;DHT22;5607;48.302;14.294;2024-01-15T00:01:48;-0.80;99.90
11107;DHT22;5607;48.302;14.294;2024-01-15T00:04:37;-0.90;99.90
11107;DHT22;5607;48.302;14.294;2024-01-15T00:07:27;-0.90;99.90
11107;DHT22;5607;48.302;14.294;2024-01-15T00:10:13;-0.80;99.90
11107;DHT22;5607;48.302;14.294;2024-01-15T00:13:00;-0.80;99.90
11107;DHT22;5607;48.302;14.294;2024-01-15T00:15:47;-0.90;99.90
11107;DHT22;5607;48.302;14.294;2024-01-15T00:18:33;-0.90;99.90
11107;DHT22;5607;48.302;14.294;2024-01-15T00:21:20;-1.10;99.90
11107;DHT22;5607;48.302;14.294;2024-01-15T00:24:07;-1.10;99.90
11107;DHT22;5607;48.302;14.294;2024-01-15T00:26:54;-1.10;99.90
11107;DHT22;5607;48.302;14.294;2024-01-15T00:29:41;-1.00;99.90
11107;DHT22;5607;48.302;14.294;2024-01-15T00:32:28;-1.00;99.90
11107;DHT22;5607;48.302;14.294;2024-01-15T00:35:14;-1.10;99.90
11107;DHT22;5607;48.302;14.294;2024-01-15T00:38:01;-1.20;99.90
11107;DHT22;5607;48.302;14.294;2024-01-15T00:40:48;-1.10;99.90
11107;DHT22;5607;48.302;14.294;2024-01-15T00:43:35;-1.00;99.90
11107;DHT22;5607;48.302;14.294;2024-01-15T00:46:22;-0.90;99.90
11107;DHT22;5607;48.302;14.294;2024-01-15T00:49:08;-0.90;99.90
11107;DHT22;5607;48.302;14.294;2024-01-15T00:51:55;-1.00;99.90
11107;DHT22;5607;48.302;14.294;2024-01-15T00:54:41;-1.00;99.90
11107;DHT22;5607;48.302;14.294;2024-01-15T00:57:28;-1.00;99.90
11107;DHT22;5607;48.302;14.294;2024-01-15T01:00:15;-1.10;99.90
11107;DHT22;5607;48.302;14.294;2024-01-15T01:03:02;-1.10;99.90
11107;DHT22;5607;48.302;14.294;2024-01-15T01:05:48;-1.10;99.90
11107;DHT22;5607;48.302;14.294;2024-01-15T01:08:36;-1.20;99.90
11107;DHT22;5607;48.302;14.294;2024-01-15T01:11:22;-1.20;99.90
11107;DHT22;5607;48.302;14.294;2024-01-15T01:14:09;-1.10;99.90
11107;DHT22;5607;48.302;14.294;2024-01-15T01:16:55;-1.00;99.90
11107;DHT22;5607;48.302;14.294;2024-01-15T01:19:43;-1.00;99.90
11107;DHT22;5607;48.302;14.294;2024-01-15T01:22:31;-1.00;99.90
11107;DHT22;5607;48.302;14.294;2024-01-15T01:25:18;-1.00;99.90
11107;DHT22;5607;48.302;14.294;2024-01-15T01:28:04;-0.90;99.90
11107;DHT22;5607;48.302;14.294;2024-01-15T01:30:51;-1.00;99.90
11107;DHT22;5607;48.302;14.294;2024-01-15T01:33:38;-1.10;99.90
11107;DHT22;5607;48.302;14.294;2024-01-15T01:36:28;-1.20;99.90
11107;DHT22;5607;48.302;14.294;2024-01-15T01:39:15;-1.20;99.90
11107;DHT22;5607;48.302;14.294;2024-01-15T01:42:02;-1.30;99.90
11107;DHT22;5607;48.302;14.294;2024-01-15T01:44:48;-1.40;99.90
11107;DHT22;5607;48.302;14.294;2024-01-15T01:47:35;-1.50;99.90
11107;DHT22;5607;48.302;14.294;2024-01-15T01:50:23;-1.60;99.90
11107;DHT22;5607;48.302;14.294;2024-01-15T01:53:10;-1.60;99.90
11107;DHT22;5607;48.302;14.294;2024-01-15T01:55:56;-1.70;99.90
11107;DHT22;5607;48.302;14.294;2024-01-15T01:58:44;-1.90;99.90
11107;DHT22;5607;48.302;14.294;2024-01-15T02:01:31;-2.00;99.90
11107;DHT22;5607;48.302;14.294;2024-01-15T02:04:18;-2.20;99.90
11107;DHT22;5607;48.302;14.294;2024-01-15T02:07:05;-2.10;99.90
11107;DHT22;5607;48.302;14.294;2024-01-15T02:09:52;-2.10;99.90
11107;DHT22;5607;48.302;14.294;2024-01-15T02:12:38;-2.20;99.90
11107;DHT22;5607;48.302;14.294;2024-01-15T02:15:25;-2.20;99.90
11107;DHT22;5607;48.302;14.294;2024-01-15T02:18:12;-2.10;99.90
11107;DHT22;5607;48.302;14.294;2024-01-15T02:20:58;-2.10;99.90
11107;DHT22;5607;48.302;14.294;2024-01-15T02:23:45;-2.00;99.90
11107;DHT22;5607;48.302;14.294;2024-01-15T02:26:31;-1.90;99.90
11107;DHT22;5607;48.302;14.294;2024-01-15T02:29:22;-2.00;99.90
11107;DHT22;5607;48.302;14.294;2024-01-15T02:32:08;-2.10;99.90
11107;DHT22;5607;48.302;14.294;2024-01-15T02:34:55;-1.90;99.90
11107;DHT22;5607;48.302;14.294;2024-01-15T02:37:42;-1.90;99.90
11107;DHT22;5607;48.302;14.294;2024-01-15T02:40:29;-1.90;99.90
11107;DHT22;5607;48.302;14.294;2024-01-15T02:43:15;-1.90;99.90
11107;DHT22;5607;48.302;14.294;2024-01-15T02:46:02;-1.80;99.90
11107;DHT22;5607;48.302;14.294;2024-01-15T02:48:48;-1.80;99.90
11107;DHT22;5607;48.302;14.294;2024-01-15T02:51:35;-1.70;99.90
11107;DHT22;5607;48.302;14.294;2024-01-15T02:54:22;-1.60;99.90
11107;DHT22;5607;48.302;14.294;2024-01-15T02:57:08;-1.40;99.90
11107;DHT22;5607;48.302;14.294;2024-01-15T02:59:55;-1.40;99.90
11107;DHT22;5607;48.302;14.294;2024-01-15T03:02:44;-1.30;99.90
11107;DHT22;5607;48.302;14.294;2024-01-15T03:05:31;-1.20;99.90
11107;DHT22;5607;48.302;14.294;2024-01-15T03:08:18;-1.20;99.90
11107;DHT22;5607;48.302;14.294;2024-01-15T03:11:04;-1.20;99.90
11107;DHT22;5607;48.302;14.294;2024-01-15T03:13:51;-1.20;99.90
11107;DHT22;5607;48.302;14.294;2024-01-15T03:16:37;-1.10;99.90
11107;DHT22;5607;48.302;14.294;2024-01-15T03:19:24;-1.10;99.90
11107;DHT22;5607;48.302;14.294;2024-01-15T03:22:10;-1.20;99.90
11107;DHT22;5607;48.302;14.294;2024-01-15T03:24:57;-1.20;99.90
11107;DHT22;5607;48.302;14.294;2024-01-15T03:27:44;-1.20;99.90
11107;DHT22;5607;48.302;14.294;2024-01-15T03:30:31;-1.20;99.90
11107;DHT22;5607;48.302;14.294;2024-01-15T03:33:18;-1.30;99.90
11107;DHT22;5607;48.302;14.294;2024-01-15T03:36:04;-1.30;99.90
11107;DHT22;5607;48.302;14.294;2024-01-15T03:38:51;-1.20;99.90
11107;DHT22;5607;48.302;14.294;2024-01-15T03:41:38;-1.00;99.90
11107;DHT22;5607;48.302;14.294;2024-01-15T03:44:25;-1.00;99.90
11107;DHT22;5607;48.302;14.294;2024-01-15T03:47:11;-1.00;99.90
11107;DHT22;5607;48.302;14.294;2024-01-15T03:50:00;-1.30;99.90
11107;DHT22;5607;48.302;14.294;2024-01-15T03:52:46;-1.40;99.90
11107;DHT22;5607;48.302;14.294;2024-01-15T03:55:33;-1.40;99.90
11107;DHT22;5607;48.302;14.294;2024-01-15T03:58:19;-1.40;99.90
11107;DHT22;5607;48.302;14.294;2024-01-15T04:01:09;-1.20;99.90
11107;DHT22;5607;48.302;14.294;2024-01-15T04:03:56;-1.20;99.90
11107;DHT22;5607;48.302;14.294;2024-01-15T04:06:43;-1.00;99.90
11107;DHT22;5607;48.302;14.294;2024-01-15T04:09:29;-1.00;99.90
11107;DHT22;5607;48.302;14.294;2024-01-15T04:12:16;-1.10;99.90
11107;DHT22;5607;48.302;14.294;2024-01-15T04:15:02;-1.10;99.90
11107;DHT22;5607;48.302;14.294;2024-01-15T04:17:51;-1.00;99.90
11107;DHT22;5607;48.302;14.294;2024-01-15T04:20:38;-0.90;99.90
11107;DHT22;5607;48.302;14.294;2024-01-15T04:23:25;-0.90;99.90
11107;DHT22;5607;48.302;14.294;2024-01-15T04:26:11;-0.80;99.90
11107;DHT22;5607;48.302;14.294;2024-01-15T04:28:58;-0.70;99.90
11107;DHT22;5607;48.302;14.294;2024-01-15T04:31:45;-0.60;99.90
11107;DHT22;5607;48.302;14.294;2024-01-15T04:34:31;-0.60;99.90
11107;DHT22;5607;48.302;14.294;2024-01-15T04:37:18;-0.50;99.90
11107;DHT22;5607;48.302;14.294;2024-01-15T04:40:05;-0.40;99.90
11107;DHT22;5607;48.302;14.294;2024-01-15T04:42:52;-0.40;99.90
11107;DHT22;5607;48.302;14.294;2024-01-15T04:45:38;-0.40;99.90
11107;DHT22;5607;48.302;14.294;2024-01-15T04:48:25;-0.20;99.90
11107;DHT22;5607;48.302;14.294;2024-01-15T04:51:11;-0.40;99.90
11107;DHT22;5607;48.302;14.294;2024-01-15T04:53:58;-0.30;99.90
11107;DHT22;5607;48.302;14.294;2024-01-15T04:56:45;-0.30;99.90
11107;DHT22;5607;48.302;14.294;2024-01-15T04:59:31;-0.20;99.90
11107;DHT22;5607;48.302;14.294;2024-01-15T05:02:18;-0.10;99.90
11107;DHT22;5607;48.302;14.294;2024-01-15T05:05:04;-0.10;99.90
11107;DHT22;5607;48.302;14.294;2024-01-15T05:07:51;-0.30;99.90
11107;DHT22;5607;48.302;14.294;2024-01-15T05:10:38;-0.30;99.90
11107;DHT22;5607;48.302;14.294;2024-01-15T05:13:24;-0.40;99.90
11107;DHT22;5607;48.302;14.294;2024-01-15T05:16:11;-0.30;99.90
11107;DHT22;5607;48.302;14.294;2024-01-15T05:18:57;-0.30;99.90
11107;DHT22;5607;48.302;14.294;2024-01-15T05:21:44;-0.30;99.90
11107;DHT22;5607;48.302;14.294;2024-01-15T05:24:30;-0.40;99.90
11107;DHT22;5607;48.302;14.294;2024-01-15T05:27:17;-0.40;99.90
11107;DHT22;5607;48.302;14.294;2024-01-15T05:30:04;-0.50;99.90
11107;DHT22;5607;48.302;14.294;2024-01-15T05:32:51;-0.50;99.90
11107;DHT22;5607;48.302;14.294;2024-01-15T05:35:37;-0.50;99.90
11107;DHT22;5607;48.302;14.294;2024-01-15T05:38:24;-0.50;99.90
11107;DHT22;5607;48.302;14.294;2024-01-15T05:41:10;-0.50;99.90
11107;DHT22;5607;48.302;14.294;2024-01-15T05:43:57;-0.40;99.90
11107;DHT22;5607;48.302;14.294;2024-01-15T05:46:43;-0.40;99.90
11107;DHT22;5607;48.302;14.294;2024-01-15T05:49:30;-0.50;99.90
11107;DHT22;5607;48.302;14.294;2024-01-15T05:52:17;-0.50;99.90
11107;DHT22;5607;48.302;14.294;2024-01-15T05:55:04;-0.50;99.90
11107;DHT22;5607;48.302;14.294;2024-01-15T05:57:51;-0.40;99.90
11107;DHT22;5607;48.302;14.294;2024-01-15T06:00:37;-0.30;99.90
11107;DHT22;5607;48.302;14.294;2024-01-15T06:03:24;-0.30;99.90
11107;DHT22;5607;48.302;14.294;2024-01-15T06:06:10;-0.30;99.90
11107;DHT22;5607;48.302;14.294;2024-01-15T06:08:57;-0.30;99.90
11107;DHT22;5607;48.302;14.294;2024-01-15T06:11:45;-0.30;99.90
11107;DHT22;5607;48.302;14.294;2024-01-15T06:14:32;-0.30;99.90
11107;DHT22;5607;48.302;14.294;2024-01-15T06:17:18;-0.40;99.90
11107;DHT22;5607;48.302;14.294;2024-01-15T06:20:05;-0.30;99.90
11107;DHT22;5607;48.302;14.294;2024-01-15T06:22:52;-0.40;99.90
11107;DHT22;5607;48.302;14.294;2024-01-15T06:25:39;-0.40;99.90
11107;DHT22;5607;48.302;14.294;2024-01-15T06:28:25;-0.30;99.90
11107;DHT22;5607;48.302;14.294;2024-01-15T06:31:12;-0.20;99.90
11107;DHT22;5607;48.302;14.294;2024-01-15T06:33:58;-0.20;99.90
11107;DHT22;5607;48.302;14.294;2024-01-15T06:36:45;-0.20;99.90
11107;DHT22;5607;48.302;14.294;2024-01-15T06:39:32;0.00;99.90
11107;DHT22;5607;48.302;14.294;2024-01-15T06:42:18;-0.10;99.90
11107;DHT22;5607;48.302;14.294;2024-01-15T06:45:05;0.10;99.90
11107;DHT22;5607;48.302;14.294;2024-01-15T06:47:52;0.00;99.90
11107;DHT22;5607;48.302;14.294;2024-01-15T06:50:38;0.10;99.90
11107;DHT22;5607;48.302;14.294;2024-01-15T06:53:25;0.20;99.90
11107;DHT22;5607;48.302;14.294;2024-01-15T06:56:12;0.20;99.90
11107;DHT22;5607;48.302;14.294;2024-01-15T06:58:58;0.10;99.90
11107;DHT22;5607;48.302;14.294;2024-01-15T07:01:45;0.20;99.90
11107;DHT22;5607;48.302;14.294;2024-01-15T07:04:31;0.20;99.90
11107;DHT22;5607;48.302;14.294;2024-01-15T07:07:18;0.20;99.90
11107;DHT22;5607;48.302;14.294;2024-01-15T07:10:05;0.20;99.90
11107;DHT22;5607;48.302;14.294;2024-01-15T07:12:52;0.30;99.90
11107;DHT22;5607;48.302;14.294;2024-01-15T07:15:39;0.30;99.90
11107;DHT22;5607;48.302;14.294;2024-01-15T07:18:27;0.20;99.90
11107;DHT22;5607;48.302;14.294;2024-01-15T07:21:14;0.30;99.90
11107;DHT22;5607;48.302;14.294;2024-01-15T07:24:01;0.50;99.90
11107;DHT22;5607;48.302;14.294;2024-01-15T07:26:47;0.50;99.90
11107;DHT22;5607;48.302;14.294;2024-01-15T07:29:34;0.40;99.90
11107;DHT22;5607;48.302;14.294;2024-01-15T07:32:23;0.60;99.90
11107;DHT22;5607;48.302;14.294;2024-01-15T07:35:10;0.70;99.90
11107;DHT22;5607;48.302;14.294;2024-01-15T07:37:57;0.70;99.90
11107;DHT22;5607;48.302;14.294;2024-01-15T07:40:43;0.70;99.90
11107;DHT22;5607;48.302;14.294;2024-01-15T07:43:30;0.80;99.90
11107;DHT22;5607;48.302;14.294;2024-01-15T07:46:17;0.70;99.90
11107;DHT22;5607;48.302;14.294;2024-01-15T07:49:03;0.80;99.90
11107;DHT22;5607;48.302;14.294;2024-01-15T07:51:51;0.80;99.90
11107;DHT22;5607;48.302;14.294;2024-01-15T07:54:38;0.80;99.90
11107;DHT22;5607;48.302;14.294;2024-01-15T07:57:24;0.80;99.90
11107;DHT22;5607;48.302;14.294;2024-01-15T08:00:11;0.70;99.90
11107;DHT22;5607;48.302;14.294;2024-01-15T08:02:58;0.80;99.90
11107;DHT22;5607;48.302;14.294;2024-01-15T08:05:44;0.90;99.90
11107;DHT22;5607;48.302;14.294;2024-01-15T08:08:31;1.00;99.90
11107;DHT22;5607;48.302;14.294;2024-01-15T08:11:18;0.90;99.90
11107;DHT22;5607;48.302;14.294;2024-01-15T08:14:05;0.60;99.90
11107;DHT22;5607;48.302;14.294;2024-01-15T08:16:51;0.60;99.90
11107;DHT22;5607;48.302;14.294;2024-01-15T08:19:38;0.60;99.90
11107;DHT22;5607;48.302;14.294;2024-01-15T08:22:27;0.50;99.90
11107;DHT22;5607;48.302;14.294;2024-01-15T08:25:13;0.40;99.90
11107;DHT22;5607;48.302;14.294;2024-01-15T08:28:00;0.50;99.90
11107;DHT22;5607;48.302;14.294;2024-01-15T08:30:48;0.60;99.90
11107;DHT22;5607;48.302;14.294;2024-01-15T08:33:34;0.60;99.90
11107;DHT22;5607;48.302;14.294;2024-01-15T08:36:22;0.70;99.90
11107;DHT22;5607;48.302;14.294;2024-01-15T08:39:10;0.90;99.90
11107;DHT22;5607;48.302;14.294;2024-01-15T08:41:57;0.90;99.90
11107;DHT22;5607;48.302;14.294;2024-01-15T08:44:43;1.00;99.90
11107;DHT22;5607;48.302;14.294;2024-01-15T08:47:30;1.10;99.90
11107;DHT22;5607;48.302;14.294;2024-01-15T08:50:16;1.00;99.90
11107;DHT22;5607;48.302;14.294;2024-01-15T08:53:03;1.20;99.90
11107;DHT22;5607;48.302;14.294;2024-01-15T08:55:50;1.30;99.90
11107;DHT22;5607;48.302;14.294;2024-01-15T08:58:37;1.30;99.90
11107;DHT22;5607;48.302;14.294;2024-01-15T09:01:23;1.20;99.90
11107;DHT22;5607;48.302;14.294;2024-01-15T09:04:10;1.30;99.90
11107;DHT22;5607;48.302;14.294;2024-01-15T09:06:56;1.30;99.90
11107;DHT22;5607;48.302;14.294;2024-01-15T09:09:43;1.40;99.90
11107;DHT22;5607;48.302;14.294;2024-01-15T09:12:29;1.50;99.90
11107;DHT22;5607;48.302;14.294;2024-01-15T09:15:16;1.00;99.90
11107;DHT22;5607;48.302;14.294;2024-01-15T09:18:04;0.80;99.90
11107;DHT22;5607;48.302;14.294;2024-01-15T09:20:51;0.90;99.90
11107;DHT22;5607;48.302;14.294;2024-01-15T09:23:38;1.00;99.90
11107;DHT22;5607;48.302;14.294;2024-01-15T09:26:24;1.00;99.90
11107;DHT22;5607;48.302;14.294;2024-01-15T09:29:11;1.10;99.90
11107;DHT22;5607;48.302;14.294;2024-01-15T09:31:57;1.20;99.90
11107;DHT22;5607;48.302;14.294;2024-01-15T09:34:48;1.10;99.90
11107;DHT22;5607;48.302;14.294;2024-01-15T09:37:34;1.10;99.90
11107;DHT22;5607;48.302;14.294;2024-01-15T09:40:21;1.30;99.90
11107;DHT22;5607;48.302;14.294;2024-01-15T09:43:07;1.50;99.90
11107;DHT22;5607;48.302;14.294;2024-01-15T09:45:54;1.40;99.90
11107;DHT22;5607;48.302;14.294;2024-01-15T09:48:41;1.50;99.90
11107;DHT22;5607;48.302;14.294;2024-01-15T09:51:28;1.50;99.90
11107;DHT22;5607;48.302;14.294;2024-01-15T09:54:18;1.60;99.90
11107;DHT22;5607;48.302;14.294;2024-01-15T09:57:04;1.50;99.90
11107;DHT22;5607;48.302;14.294;2024-01-15T09:59:52;1.50;99.90
11107;DHT22;5607;48.302;14.294;2024-01-15T10:02:41;1.50;99.90
11107;DHT22;5607;48.302;14.294;2024-01-15T10:05:27;1.50;99.90
11107;DHT22;5607;48.302;14.294;2024-01-15T10:08:14;1.40;99.90
11107;DHT22;5607;48.302;14.294;2024-01-15T10:11:00;1.60;99.90
11107;DHT22;5607;48.302;14.294;2024-01-15T10:13:47;1.60;99.90
11107;DHT22;5607;48.302;14.294;2024-01-15T10:16:39;1.70;99.90
11107;DHT22;5607;48.302;14.294;2024-01-15T10:19:26;1.90;99.90
11107;DHT22;5607;48.302;14.294;2024-01-15T10:22:14;2.10;99.90
11107;DHT22;5607;48.302;14.294;2024-01-15T10:25:01;2.20;99.90
11107;DHT22;5607;48.302;14.294;2024-01-15T10:27:52;2.40;99.90
11107;DHT22;5607;48.302;14.294;2024-01-15T10:30:46;2.30;99.90
11107;DHT22;5607;48.302;14.294;2024-01-15T10:33:32;2.30;99.90
11107;DHT22;5607;48.302;14.294;2024-01-15T10:36:19;2.40;99.90
11107;DHT22;5607;48.302;14.294;2024-01-15T10:39:06;2.50;99.90
11107;DHT22;5607;48.302;14.294;2024-01-15T10:41:53;2.60;99.90
11107;DHT22;5607;48.302;14.294;2024-01-15T10:44:41;2.30;99.90
11107;DHT22;5607;48.302;14.294;2024-01-15T10:47:29;2.30;99.90
11107;DHT22;5607;48.302;14.294;2024-01-15T10:50:18;2.20;99.90
11107;DHT22;5607;48.302;14.294;2024-01-15T10:53:05;2.40;99.90
11107;DHT22;5607;48.302;14.294;2024-01-15T10:55:53;2.30;99.90
11107;DHT22;5607;48.302;14.294;2024-01-15T10:58:40;2.40;99.90
11107;DHT22;5607;48.302;14.294;2024-01-15T11:01:29;2.40;99.90
11107;DHT22;5607;48.302;14.294;2024-01-15T11:04:18;2.60;99.90
11107;DHT22;5607;48.302;14.294;2024-01-15T11:07:05;2.80;99.90
11107;DHT22;5607;48.302;14.294;2024-01-15T11:09:53;2.70;99.90
11107;DHT22;5607;48.302;14.294;2024-01-15T11:12:40;2.50;99.90
11107;DHT22;5607;48.302;14.294;2024-01-15T11:15:27;2.60;99.90
11107;DHT22;5607;48.302;14.294;2024-01-15T11:18:15;2.80;99.90
11107;DHT22;5607;48.302;14.294;2024-01-15T11:24:03;2.80;99.90
11107;DHT22;5607;48.302;14.294;2024-01-15T11:26:52;2.80;99.90
11107;DHT22;5607;48.302;14.294;2024-01-15T11:29:40;2.80;99.90
11107;DHT22;5607;48.302;14.294;2024-01-15T11:32:32;2.90;99.90
11107;DHT22;5607;48.302;14.294;2024-01-15T11:35:19;3.00;99.90
11107;DHT22;5607;48.302;14.294;2024-01-15T11:38:06;3.00;99.90
11107;DHT22;5607;48.302;14.294;2024-01-15T11:40:53;2.90;99.90
11107;DHT22;5607;48.302;14.294;2024-01-15T11:43:39;2.90;99.90
11107;DHT22;5607;48.302;14.294;2024-01-15T11:46:26;2.90;99.90
11107;DHT22;5607;48.302;14.294;2024-01-15T11:52:42;3.10;99.90
11107;DHT22;5607;48.302;14.294;2024-01-15T11:55:43;3.00;99.90
11107;DHT22;5607;48.302;14.294;2024-01-15T11:58:34;2.80;99.90
11107;DHT22;5607;48.302;14.294;2024-01-15T12:01:23;2.90;99.90
11107;DHT22;5607;48.302;14.294;2024-01-15T12:04:11;3.00;99.90
11107;DHT22;5607;48.302;14.294;2024-01-15T12:06:59;3.00;99.90
11107;DHT22;5607;48.302;14.294;2024-01-15T12:09:45;3.20;99.90
11107;DHT22;5607;48.302;14.294;2024-01-15T12:15:46;3.10;99.90
11107;DHT22;5607;48.302;14.294;2024-01-15T12:18:34;3.00;99.90
11107;DHT22;5607;48.302;14.294;2024-01-15T12:21:20;2.80;99.90
11107;DHT22;5607;48.302;14.294;2024-01-15T12:24:07;2.70;99.90
11107;DHT22;5607;48.302;14.294;2024-01-15T12:26:54;2.70;99.90
11107;DHT22;5607;48.302;14.294;2024-01-15T12:29:40;2.70;99.90
11107;DHT22;5607;48.302;14.294;2024-01-15T12:32:27;2.70;99.90
11107;DHT22;5607;48.302;14.294;2024-01-15T12:35:15;2.70;99.90
11107;DHT22;5607;48.302;14.294;2024-01-15T12:38:02;2.60;99.90
11107;DHT22;5607;48.302;14.294;2024-01-15T12:40:50;2.70;99.90
11107;DHT22;5607;48.302;14.294;2024-01-15T12:43:37;2.70;99.90
11107;DHT22;5607;48.302;14.294;2024-01-15T12:46:23;2.70;99.90
11107;DHT22;5607;48.302;14.294;2024-01-15T12:49:10;2.70;99.90
11107;DHT22;5607;48.302;14.294;2024-01-15T12:51:59;2.60;99.90
11107;DHT22;5607;48.302;14.294;2024-01-15T12:54:45;2.60;99.90
11107;DHT22;5607;48.302;14.294;2024-01-15T12:57:32;2.60;99.90
11107;DHT22;5607;48.302;14.294;2024-01-15T13:00:20;2.60;99.90
11107;DHT22;5607;48.302;14.294;2024-01-15T13:03:06;2.70;99.90
11107;DHT22;5607;48.302;14.294;2024-01-15T13:05:53;2.70;99.90
11107;DHT22;5607;48.302;14.294;2024-01-15T13:08:40;2.50;99.90
11107;DHT22;5607;48.302;14.294;2024-01-15T13:11:27;2.60;99.90
11107;DHT22;5607;48.302;14.294;2024-01-15T13:14:14;2.70;99.90
11107;DHT22;5607;48.302;14.294;2024-01-15T13:17:00;2.70;99.90
11107;DHT22;5607;48.302;14.294;2024-01-15T13:19:47;2.80;99.90
11107;DHT22;5607;48.302;14.294;2024-01-15T13:22:34;2.90;99.90
11107;DHT22;5607;48.302;14.294;2024-01-15T13:25:21;2.90;99.90
11107;DHT22;5607;48.302;14.294;2024-01-15T13:28:07;2.90;99.90
11107;DHT22;5607;48.302;14.294;2024-01-15T13:30:54;3.00;99.90
11107;DHT22;5607;48.302;14.294;2024-01-15T13:33:40;3.10;99.90
11107;DHT22;5607;48.302;14.294;2024-01-15T13:36:27;3.10;99.90
11107;DHT22;5607;48.302;14.294;2024-01-15T13:39:14;3.20;99.90
11107;DHT22;5607;48.302;14.294;2024-01-15T13:42:01;3.30;99.90
11107;DHT22;5607;48.302;14.294;2024-01-15T13:44:49;3.20;99.90
11107;DHT22;5607;48.302;14.294;2024-01-15T13:47:36;3.20;99.90
11107;DHT22;5607;48.302;14.294;2024-01-15T13:50:23;3.20;99.90
11107;DHT22;5607;48.302;14.294;2024-01-15T13:53:10;3.20;99.90
11107;DHT22;5607;48.302;14.294;2024-01-15T13:55:56;3.20;99.90
11107;DHT22;5607;48.302;14.294;2024-01-15T13:58:43;3.20;99.90
11107;DHT22;5607;48.302;14.294;2024-01-15T14:01:30;3.30;99.90
11107;DHT22;5607;48.302;14.294;2024-01-15T14:04:17;3.20;99.90
11107;DHT22;5607;48.302;14.294;2024-01-15T14:07:04;3.40;99.90
11107;DHT22;5607;48.302;14.294;2024-01-15T14:09:50;3.40;99.90
11107;DHT22;5607;48.302;14.294;2024-01-15T14:12:37;3.20;99.90
11107;DHT22;5607;48.302;14.294;2024-01-15T14:15:24;3.10;99.90
11107;DHT22;5607;48.302;14.294;2024-01-15T14:18:10;3.00;99.90
11107;DHT22;5607;48.302;14.294;2024-01-15T14:20:57;3.00;99.90
11107;DHT22;5607;48.302;14.294;2024-01-15T14:23:45;3.10;99.90
11107;DHT22;5607;48.302;14.294;2024-01-15T14:26:33;3.10;99.90
11107;DHT22;5607;48.302;14.294;2024-01-15T14:29:21;3.00;99.90
11107;DHT22;5607;48.302;14.294;2024-01-15T14:32:11;3.20;99.90
11107;DHT22;5607;48.302;14.294;2024-01-15T14:34:57;3.10;99.90
11107;DHT22;5607;48.302;14.294;2024-01-15T14:37:46;3.10;99.90
11107;DHT22;5607;48.302;14.294;2024-01-15T14:40:34;3.10;99.90
11107;DHT22;5607;48.302;14.294;2024-01-15T14:43:22;3.10;99.90
11107;DHT22;5607;48.302;14.294;2024-01-15T14:46:08;3.10;99.90
11107;DHT22;5607;48.302;14.294;2024-01-15T14:48:55;3.20;99.90
11107;DHT22;5607;48.302;14.294;2024-01-15T14:51:41;3.10;99.90
11107;DHT22;5607;48.302;14.294;2024-01-15T14:54:28;2.90;99.90
11107;DHT22;5607;48.302;14.294;2024-01-15T14:57:14;2.90;99.90
11107;DHT22;5607;48.302;14.294;2024-01-15T15:00:01;2.90;99.90
11107;DHT22;5607;48.302;14.294;2024-01-15T15:02:48;2.90;99.90
11107;DHT22;5607;48.302;14.294;2024-01-15T15:05:35;2.90;99.90
11107;DHT22;5607;48.302;14.294;2024-01-15T15:08:21;2.90;99.90
11107;DHT22;5607;48.302;14.294;2024-01-15T15:11:08;3.00;99.90
11107;DHT22;5607;48.302;14.294;2024-01-15T15:13:55;3.00;99.90
11107;DHT22;5607;48.302;14.294;2024-01-15T15:16:41;3.00;99.90
11107;DHT22;5607;48.302;14.294;2024-01-15T15:19:28;2.80;99.90
11107;DHT22;5607;48.302;14.294;2024-01-15T15:22:14;2.90;99.90
11107;DHT22;5607;48.302;14.294;2024-01-15T15:25:01;2.90;99.90
11107;DHT22;5607;48.302;14.294;2024-01-15T15:27:48;3.00;99.90
11107;DHT22;5607;48.302;14.294;2024-01-15T15:30:34;3.00;99.90
11107;DHT22;5607;48.302;14.294;2024-01-15T15:33:21;3.10;99.90
11107;DHT22;5607;48.302;14.294;2024-01-15T15:36:07;3.00;99.90
11107;DHT22;5607;48.302;14.294;2024-01-15T15:38:54;2.90;99.90
11107;DHT22;5607;48.302;14.294;2024-01-15T15:41:42;2.80;99.90
11107;DHT22;5607;48.302;14.294;2024-01-15T15:44:28;2.90;99.90
11107;DHT22;5607;48.302;14.294;2024-01-15T15:47:15;2.80;99.90
11107;DHT22;5607;48.302;14.294;2024-01-15T15:50:01;2.70;99.90
11107;DHT22;5607;48.302;14.294;2024-01-15T15:52:48;2.70;99.90
11107;DHT22;5607;48.302;14.294;2024-01-15T15:55:35;2.70;99.90
11107;DHT22;5607;48.302;14.294;2024-01-15T15:58:25;2.80;99.90
11107;DHT22;5607;48.302;14.294;2024-01-15T16:01:11;2.80;99.90
11107;DHT22;5607;48.302;14.294;2024-01-15T16:03:58;2.80;99.90
11107;DHT22;5607;48.302;14.294;2024-01-15T16:06:45;2.80;99.90
11107;DHT22;5607;48.302;14.294;2024-01-15T16:09:33;2.80;99.90
11107;DHT22;5607;48.302;14.294;2024-01-15T16:12:20;2.80;99.90
11107;DHT22;5607;48.302;14.294;2024-01-15T16:15:19;2.90;99.90
11107;DHT22;5607;48.302;14.294;2024-01-15T16:18:07;2.90;99.90
11107;DHT22;5607;48.302;14.294;2024-01-15T16:20:53;3.00;99.90
11107;DHT22;5607;48.302;14.294;2024-01-15T16:23:40;3.00;99.90
11107;DHT22;5607;48.302;14.294;2024-01-15T16:26:28;2.90;99.90
11107;DHT22;5607;48.302;14.294;2024-01-15T16:29:14;2.90;99.90
11107;DHT22;5607;48.302;14.294;2024-01-15T16:32:01;3.00;99.90
11107;DHT22;5607;48.302;14.294;2024-01-15T16:34:47;3.10;99.90
11107;DHT22;5607;48.302;14.294;2024-01-15T16:37:34;3.00;99.90
11107;DHT22;5607;48.302;14.294;2024-01-15T16:40:22;2.90;99.90
11107;DHT22;5607;48.302;14.294;2024-01-15T16:43:09;2.80;99.90
11107;DHT22;5607;48.302;14.294;2024-01-15T16:45:55;2.80;99.90
11107;DHT22;5607;48.302;14.294;2024-01-15T16:48:42;2.70;99.90
11107;DHT22;5607;48.302;14.294;2024-01-15T16:51:29;2.70;99.90
11107;DHT22;5607;48.302;14.294;2024-01-15T16:57:23;2.70;99.90
11107;DHT22;5607;48.302;14.294;2024-01-15T17:00:10;2.50;99.90
11107;DHT22;5607;48.302;14.294;2024-01-15T17:02:57;2.50;99.90
11107;DHT22;5607;48.302;14.294;2024-01-15T17:05:43;2.30;99.90
11107;DHT22;5607;48.302;14.294;2024-01-15T17:08:30;2.20;99.90
11107;DHT22;5607;48.302;14.294;2024-01-15T17:11:18;2.10;1.00
11107;DHT22;5607;48.302;14.294;2024-01-15T17:14:05;2.10;1.00
11107;DHT22;5607;48.302;14.294;2024-01-15T17:16:52;2.10;1.00
11107;DHT22;5607;48.302;14.294;2024-01-15T17:19:38;2.10;1.00
11107;DHT22;5607;48.302;14.294;2024-01-15T17:22:25;2.10;1.00
11107;DHT22;5607;48.302;14.294;2024-01-15T17:25:11;2.10;1.00
11107;DHT22;5607;48.302;14.294;2024-01-15T17:27:58;1.90;1.00
11107;DHT22;5607;48.302;14.294;2024-01-15T17:30:45;1.90;1.00
11107;DHT22;5607;48.302;14.294;2024-01-15T17:33:32;1.90;1.00
11107;DHT22;5607;48.302;14.294;2024-01-15T17:36:19;1.90;1.00
11107;DHT22;5607;48.302;14.294;2024-01-15T17:39:06;1.90;1.00
11107;DHT22;5607;48.302;14.294;2024-01-15T17:41:52;1.90;1.00
11107;DHT22;5607;48.302;14.294;2024-01-15T17:44:39;1.90;1.00
11107;DHT22;5607;48.302;14.294;2024-01-15T17:47:25;1.90;1.00
11107;DHT22;5607;48.302;14.294;2024-01-15T17:50:12;1.90;1.00
11107;DHT22;5607;48.302;14.294;2024-01-15T17:52:59;2.00;1.80
11107;DHT22;5607;48.302;14.294;2024-01-15T17:55:46;2.00;1.00
11107;DHT22;5607;48.302;14.294;2024-01-15T17:58:34;2.00;1.50